PRIVATE WETTERSTATION BILLIGHEIM-ALLFELD                       ZURCK
Wetterdaten: Dienstag, 01.03.2022
Datum Zeit Temp. A. Temp. A. min Temp. A. max Feuchte A. Luftdruck Regen Wind Richtung Richtung Sonnenschein ET Solar Taupunkt Windchill Windben Empfang
01.03.2022 00:00 1,9 C 1,9 C 2,1 C 62 % 1030,3 hPa 0,0 l/m 1,6 km/h (1 Bft) O 90 0 min 0,025 mm 0 W/m -4,6 C 1,9 C 9,7 km/h (2 Bft) 100 %
01.03.2022 00:10 1,8 C 1,8 C 1,9 C 62 % 1030,4 hPa 0,0 l/m 3,2 km/h (1 Bft) O-SO 112 0 min 0,000 mm 0 W/m -4,7 C 1,8 C 9,7 km/h (2 Bft) 99 %
01.03.2022 00:20 1,6 C 1,6 C 1,8 C 63 % 1030,4 hPa 0,0 l/m 1,6 km/h (1 Bft) O-SO 112 0 min 0,000 mm 0 W/m -4,7 C 1,6 C 9,7 km/h (2 Bft) 89 %
01.03.2022 00:30 1,4 C 1,4 C 1,6 C 64 % 1030,4 hPa 0,0 l/m 0,0 km/h (0 Bft) O-SO 112 0 min 0,000 mm 0 W/m -4,6 C 1,4 C 11,3 km/h (2 Bft) 98 %
01.03.2022 00:40 1,4 C 1,4 C 1,4 C 64 % 1030,4 hPa 0,0 l/m 1,6 km/h (1 Bft) O-SO 112 0 min 0,000 mm 0 W/m -4,6 C 1,4 C 11,3 km/h (2 Bft) 96 %
01.03.2022 00:50 1,2 C 1,2 C 1,4 C 64 % 1030,5 hPa 0,0 l/m 1,6 km/h (1 Bft) O 90 0 min 0,000 mm 0 W/m -4,8 C 1,2 C 11,3 km/h (2 Bft) 97 %
01.03.2022 01:00 1,1 C 1,0 C 1,2 C 64 % 1030,4 hPa 0,0 l/m 0,0 km/h (0 Bft) O-SO 112 0 min 0,025 mm 0 W/m -4,9 C 1,1 C 6,4 km/h (2 Bft) 98 %
01.03.2022 01:10 0,9 C 0,9 C 1,0 C 65 % 1030,3 hPa 0,0 l/m 0,0 km/h (0 Bft) O-SO 112 0 min 0,000 mm 0 W/m -4,9 C 0,9 C 6,4 km/h (2 Bft) 97 %
01.03.2022 01:20 0,8 C 0,8 C 0,9 C 66 % 1030,2 hPa 0,0 l/m 1,6 km/h (1 Bft) O 90 0 min 0,000 mm 0 W/m -4,8 C 0,8 C 16,1 km/h (3 Bft) 98 %
01.03.2022 01:30 0,7 C 0,7 C 0,8 C 66 % 1030,2 hPa 0,0 l/m 1,6 km/h (1 Bft) O-SO 112 0 min 0,000 mm 0 W/m -4,9 C 0,7 C 16,1 km/h (3 Bft) 98 %
01.03.2022 01:40 0,6 C 0,6 C 0,7 C 67 % 1030,2 hPa 0,0 l/m 1,6 km/h (1 Bft) O 90 0 min 0,000 mm 0 W/m -4,8 C 0,6 C 12,9 km/h (3 Bft) 98 %
01.03.2022 01:50 0,4 C 0,4 C 0,6 C 67 % 1030,2 hPa 0,0 l/m 1,6 km/h (1 Bft) O 90 0 min 0,000 mm 0 W/m -5,0 C 0,4 C 14,5 km/h (3 Bft) 87 %
01.03.2022 02:00 0,3 C 0,3 C 0,4 C 67 % 1030,3 hPa 0,0 l/m 0,0 km/h (0 Bft) O-NO 67 0 min 0,025 mm 0 W/m -5,1 C 0,3 C 6,4 km/h (2 Bft) 97 %
01.03.2022 02:10 0,2 C 0,2 C 0,3 C 68 % 1030,1 hPa 0,0 l/m 0,0 km/h (0 Bft) O 90 0 min 0,000 mm 0 W/m -5,0 C 0,2 C 8,0 km/h (2 Bft) 98 %
01.03.2022 02:20 0,1 C 0,1 C 0,2 C 68 % 1030,1 hPa 0,0 l/m 0,0 km/h (0 Bft) SO 135 0 min 0,000 mm 0 W/m -5,1 C 0,1 C 6,4 km/h (2 Bft) 96 %
01.03.2022 02:30 -0,1 C -0,1 C 0,1 C 68 % 1030,0 hPa 0,0 l/m 0,0 km/h (0 Bft) N 0 0 min 0,000 mm 0 W/m -5,3 C -0,1 C 0,0 km/h (0 Bft) 98 %
01.03.2022 02:40 -0,2 C -0,2 C -0,1 C 68 % 1029,9 hPa 0,0 l/m 0,0 km/h (0 Bft) N 0 0 min 0,000 mm 0 W/m -5,4 C -0,2 C 0,0 km/h (0 Bft) 98 %
01.03.2022 02:50 -0,2 C -0,3 C -0,2 C 68 % 1029,9 hPa 0,0 l/m 0,0 km/h (0 Bft) O-SO 112 0 min 0,000 mm 0 W/m -5,4 C -0,2 C 6,4 km/h (2 Bft) 98 %
01.03.2022 03:00 -0,3 C -0,3 C -0,2 C 68 % 1029,9 hPa 0,0 l/m 0,0 km/h (0 Bft) O-NO 67 0 min 0,025 mm 0 W/m -5,5 C -0,3 C 4,8 km/h (1 Bft) 95 %
01.03.2022 03:10 -0,3 C -0,3 C -0,2 C 68 % 1029,9 hPa 0,0 l/m 0,0 km/h (0 Bft) O 90 0 min 0,000 mm 0 W/m -5,5 C -0,3 C 3,2 km/h (1 Bft) 91 %
01.03.2022 03:20 -0,6 C -0,6 C -0,3 C 70 % 1030,0 hPa 0,0 l/m 0,0 km/h (0 Bft) N 0 0 min 0,000 mm 0 W/m -5,4 C -0,6 C 0,0 km/h (0 Bft) 98 %
01.03.2022 03:30 -0,8 C -0,8 C -0,6 C 71 % 1030,0 hPa 0,0 l/m 0,0 km/h (0 Bft) N 0 0 min 0,000 mm 0 W/m -5,4 C -0,8 C 0,0 km/h (0 Bft) 97 %
01.03.2022 03:40 -1,2 C -1,2 C -0,8 C 73 % 1030,1 hPa 0,0 l/m 0,0 km/h (0 Bft) N 0 0 min 0,000 mm 0 W/m -5,4 C -1,2 C 0,0 km/h (0 Bft) 98 %
01.03.2022 03:50 -1,4 C -1,4 C -1,2 C 73 % 1029,9 hPa 0,0 l/m 0,0 km/h (0 Bft) N 0 0 min 0,000 mm 0 W/m -5,6 C -1,4 C 0,0 km/h (0 Bft) 97 %
01.03.2022 04:00 -1,6 C -1,6 C -1,4 C 75 % 1029,8 hPa 0,0 l/m 0,0 km/h (0 Bft) N 0 0 min 0,025 mm 0 W/m -5,4 C -1,6 C 0,0 km/h (0 Bft) 98 %
01.03.2022 04:10 -1,8 C -1,8 C -1,6 C 76 % 1029,8 hPa 0,0 l/m 0,0 km/h (0 Bft) N 0 0 min 0,000 mm 0 W/m -5,5 C -1,8 C 0,0 km/h (0 Bft) 98 %
01.03.2022 04:20 -2,0 C -2,0 C -1,8 C 76 % 1029,7 hPa 0,0 l/m 0,0 km/h (0 Bft) N 0 0 min 0,000 mm 0 W/m -5,6 C -2,0 C 0,0 km/h (0 Bft) 97 %
01.03.2022 04:30 -2,1 C -2,1 C -2,0 C 76 % 1029,8 hPa 0,0 l/m 0,0 km/h (0 Bft) N 0 0 min 0,000 mm 0 W/m -5,7 C -2,1 C 0,0 km/h (0 Bft) 98 %
01.03.2022 04:40 -2,1 C -2,1 C -2,1 C 76 % 1029,8 hPa 0,0 l/m 0,0 km/h (0 Bft) O 90 0 min 0,000 mm 0 W/m -5,7 C -2,1 C 1,6 km/h (1 Bft) 97 %
01.03.2022 04:50 -2,1 C -2,1 C -2,1 C 76 % 1029,7 hPa 0,0 l/m 0,0 km/h (0 Bft) N 0 0 min 0,000 mm 0 W/m -5,7 C -2,1 C 0,0 km/h (0 Bft) 98 %
01.03.2022 05:00 -2,2 C -2,2 C -2,1 C 76 % 1029,7 hPa 0,0 l/m 0,0 km/h (0 Bft) O-NO 67 0 min 0,000 mm 0 W/m -5,8 C -2,2 C 6,4 km/h (2 Bft) 97 %
01.03.2022 05:10 -2,2 C -2,2 C -2,2 C 75 % 1029,7 hPa 0,0 l/m 0,0 km/h (0 Bft) O-NO 67 0 min 0,000 mm 0 W/m -6,0 C -2,2 C 3,2 km/h (1 Bft) 98 %
01.03.2022 05:20 -2,2 C -2,2 C -2,2 C 75 % 1029,7 hPa 0,0 l/m 0,0 km/h (0 Bft) N 0 0 min 0,000 mm 0 W/m -6,0 C -2,2 C 0,0 km/h (0 Bft) 97 %
01.03.2022 05:30 -2,1 C -2,2 C -2,0 C 75 % 1029,7 hPa 0,0 l/m 0,0 km/h (0 Bft) N 0 0 min 0,000 mm 0 W/m -5,9 C -2,1 C 0,0 km/h (0 Bft) 97 %
01.03.2022 05:40 -2,2 C -2,2 C -2,1 C 74 % 1029,6 hPa 0,0 l/m 0,0 km/h (0 Bft) O 90 0 min 0,000 mm 0 W/m -6,2 C -2,2 C 6,4 km/h (2 Bft) 98 %
01.03.2022 05:50 -2,2 C -2,2 C -2,2 C 74 % 1029,6 hPa 0,0 l/m 0,0 km/h (0 Bft) N 0 0 min 0,000 mm 0 W/m -6,2 C -2,2 C 0,0 km/h (0 Bft) 97 %
01.03.2022 06:00 -2,2 C -2,2 C -2,2 C 74 % 1029,5 hPa 0,0 l/m 0,0 km/h (0 Bft) O-SO 112 0 min 0,000 mm 0 W/m -6,2 C -2,2 C 3,2 km/h (1 Bft) 98 %
01.03.2022 06:10 -2,2 C -2,2 C -2,2 C 74 % 1029,5 hPa 0,0 l/m 0,0 km/h (0 Bft) N 0 0 min 0,000 mm 0 W/m -6,2 C -2,2 C 0,0 km/h (0 Bft) 97 %
01.03.2022 06:20 -2,3 C -2,3 C -2,2 C 74 % 1029,5 hPa 0,0 l/m 0,0 km/h (0 Bft) N 0 0 min 0,000 mm 0 W/m -6,3 C -2,3 C 0,0 km/h (0 Bft) 98 %
01.03.2022 06:30 -2,4 C -2,4 C -2,3 C 74 % 1029,5 hPa 0,0 l/m 0,0 km/h (0 Bft) N 0 0 min 0,000 mm 0 W/m -6,4 C -2,4 C 0,0 km/h (0 Bft) 98 %
01.03.2022 06:40 -2,6 C -2,6 C -2,4 C 76 % 1029,5 hPa 0,0 l/m 0,0 km/h (0 Bft) N 0 0 min 0,000 mm 0 W/m -6,2 C -2,6 C 0,0 km/h (0 Bft) 97 %
01.03.2022 06:50 -2,7 C -2,7 C -2,6 C 75 % 1029,5 hPa 0,0 l/m 0,0 km/h (0 Bft) N 0 0 min 0,000 mm 0 W/m -6,5 C -2,7 C 0,0 km/h (0 Bft) 99 %
01.03.2022 07:00 -2,9 C -2,9 C -2,7 C 76 % 1029,6 hPa 0,0 l/m 0,0 km/h (0 Bft) N 0 0 min 0,000 mm 0 W/m -6,5 C -2,9 C 0,0 km/h (0 Bft) 98 %
01.03.2022 07:10 -2,9 C -2,9 C -2,9 C 76 % 1029,6 hPa 0,0 l/m 0,0 km/h (0 Bft) N 0 0 min 0,000 mm 5 W/m -6,5 C -2,9 C 0,0 km/h (0 Bft) 100 %
01.03.2022 07:20 -2,8 C -2,9 C -2,8 C 76 % 1029,7 hPa 0,0 l/m 0,0 km/h (0 Bft) N-NO 22 0 min 0,000 mm 11 W/m -6,4 C -2,8 C 6,4 km/h (2 Bft) 100 %
01.03.2022 07:30 -2,7 C -2,8 C -2,7 C 74 % 1029,8 hPa 0,0 l/m 0,0 km/h (0 Bft) O-NO 67 0 min 0,000 mm 16 W/m -6,7 C -2,7 C 8,0 km/h (2 Bft) 100 %
01.03.2022 07:40 -2,7 C -2,7 C -2,7 C 74 % 1029,9 hPa 0,0 l/m 0,0 km/h (0 Bft) NO 45 0 min 0,000 mm 19 W/m -6,7 C -2,7 C 4,8 km/h (1 Bft) 90 %
01.03.2022 07:50 -2,6 C -2,7 C -2,6 C 74 % 1030,1 hPa 0,0 l/m 0,0 km/h (0 Bft) N 0 0 min 0,000 mm 26 W/m -6,6 C -2,6 C 0,0 km/h (0 Bft) 100 %
01.03.2022 08:00 -2,3 C -2,6 C -2,3 C 73 % 1030,1 hPa 0,0 l/m 0,0 km/h (0 Bft) N 0 0 min 0,000 mm 46 W/m -6,5 C -2,3 C 0,0 km/h (0 Bft) 100 %
01.03.2022 08:10 -2,0 C -2,3 C -2,0 C 71 % 1030,2 hPa 0,0 l/m 1,6 km/h (1 Bft) O-SO 112 0 min 0,000 mm 44 W/m -6,5 C -2,0 C 8,0 km/h (2 Bft) 99 %
01.03.2022 08:20 -1,7 C -1,9 C -1,7 C 70 % 1030,4 hPa 0,0 l/m 1,6 km/h (1 Bft) O 90 0 min 0,000 mm 37 W/m -6,4 C -1,7 C 9,7 km/h (2 Bft) 100 %
01.03.2022 08:30 -1,4 C -1,7 C -1,4 C 69 % 1030,3 hPa 0,0 l/m 0,0 km/h (0 Bft) O-NO 67 0 min 0,000 mm 98 W/m -6,3 C -1,4 C 6,4 km/h (2 Bft) 99 %
01.03.2022 08:40 -0,7 C -1,4 C -0,7 C 67 % 1030,5 hPa 0,0 l/m 1,6 km/h (1 Bft) O-SO 112 10 min 0,000 mm 202 W/m -6,0 C -0,7 C 11,3 km/h (2 Bft) 100 %
01.03.2022 08:50 0,1 C -0,7 C 0,1 C 66 % 1030,5 hPa 0,0 l/m 0,0 km/h (0 Bft) O-SO 112 10 min 0,000 mm 230 W/m -5,5 C 0,1 C 9,7 km/h (2 Bft) 100 %
01.03.2022 09:00 0,5 C 0,1 C 0,5 C 64 % 1030,4 hPa 0,0 l/m 3,2 km/h (1 Bft) O-SO 112 10 min 0,051 mm 264 W/m -5,5 C 0,5 C 11,3 km/h (2 Bft) 100 %
01.03.2022 09:10 0,7 C 0,5 C 0,8 C 62 % 1030,3 hPa 0,0 l/m 3,2 km/h (1 Bft) O 90 10 min 0,000 mm 288 W/m -5,7 C 0,7 C 17,7 km/h (3 Bft) 100 %
01.03.2022 09:20 0,9 C 0,7 C 0,9 C 63 % 1030,3 hPa 0,0 l/m 4,8 km/h (1 Bft) O 90 10 min 0,000 mm 304 W/m -5,3 C 0,9 C 17,7 km/h (3 Bft) 100 %
01.03.2022 09:30 1,1 C 0,9 C 1,1 C 62 % 1030,2 hPa 0,0 l/m 1,6 km/h (1 Bft) SO 135 10 min 0,000 mm 327 W/m -5,3 C 1,1 C 11,3 km/h (2 Bft) 99 %
01.03.2022 09:40 1,4 C 1,1 C 1,4 C 62 % 1030,2 hPa 0,0 l/m 1,6 km/h (1 Bft) SO 135 10 min 0,000 mm 353 W/m -5,1 C 1,4 C 9,7 km/h (2 Bft) 97 %
01.03.2022 09:50 1,6 C 1,4 C 1,6 C 61 % 1030,1 hPa 0,0 l/m 1,6 km/h (1 Bft) O 90 10 min 0,000 mm 373 W/m -5,1 C 1,6 C 11,3 km/h (2 Bft) 98 %
01.03.2022 10:00 1,9 C 1,6 C 1,9 C 60 % 1030,0 hPa 0,0 l/m 3,2 km/h (1 Bft) SO 135 10 min 0,127 mm 394 W/m -5,0 C 1,9 C 14,5 km/h (3 Bft) 97 %
01.03.2022 10:10 2,1 C 1,9 C 2,1 C 60 % 1029,9 hPa 0,0 l/m 3,2 km/h (1 Bft) O-SO 112 10 min 0,000 mm 408 W/m -4,8 C 2,1 C 9,7 km/h (2 Bft) 98 %
01.03.2022 10:20 2,6 C 2,1 C 2,6 C 58 % 1029,9 hPa 0,0 l/m 1,6 km/h (1 Bft) O-SO 112 10 min 0,000 mm 434 W/m -4,8 C 2,6 C 8,0 km/h (2 Bft) 98 %
01.03.2022 10:30 3,1 C 2,6 C 3,1 C 58 % 1029,9 hPa 0,0 l/m 0,0 km/h (0 Bft) SO 135 10 min 0,000 mm 450 W/m -4,3 C 3,1 C 4,8 km/h (1 Bft) 97 %
01.03.2022 10:40 3,5 C 3,1 C 3,5 C 56 % 1029,9 hPa 0,0 l/m 1,6 km/h (1 Bft) O-SO 112 10 min 0,000 mm 468 W/m -4,4 C 3,5 C 9,7 km/h (2 Bft) 98 %
01.03.2022 10:50 3,7 C 3,5 C 3,7 C 56 % 1029,8 hPa 0,0 l/m 0,0 km/h (0 Bft) O-NO 67 10 min 0,000 mm 483 W/m -4,2 C 3,7 C 1,6 km/h (1 Bft) 97 %
01.03.2022 11:00 3,9 C 3,7 C 3,9 C 52 % 1029,8 hPa 0,0 l/m 0,0 km/h (0 Bft) SO 135 10 min 0,178 mm 499 W/m -5,0 C 3,9 C 16,1 km/h (3 Bft) 89 %
01.03.2022 11:10 4,1 C 3,8 C 4,1 C 53 % 1029,7 hPa 0,0 l/m 1,6 km/h (1 Bft) SO 135 10 min 0,000 mm 513 W/m -4,6 C 4,1 C 11,3 km/h (2 Bft) 98 %
01.03.2022 11:20 4,1 C 4,1 C 4,2 C 51 % 1029,7 hPa 0,0 l/m 3,2 km/h (1 Bft) O 90 10 min 0,000 mm 524 W/m -5,1 C 4,1 C 9,7 km/h (2 Bft) 97 %
01.03.2022 11:30 4,3 C 4,1 C 4,3 C 51 % 1029,6 hPa 0,0 l/m 1,6 km/h (1 Bft) O-SO 112 10 min 0,000 mm 545 W/m -4,9 C 4,3 C 11,3 km/h (2 Bft) 98 %
01.03.2022 11:40 4,4 C 4,3 C 4,5 C 52 % 1029,5 hPa 0,0 l/m 3,2 km/h (1 Bft) SO 135 10 min 0,000 mm 561 W/m -4,6 C 4,4 C 11,3 km/h (2 Bft) 97 %
01.03.2022 11:50 4,6 C 4,4 C 4,6 C 50 % 1029,2 hPa 0,0 l/m 1,6 km/h (1 Bft) N-NO 22 10 min 0,000 mm 570 W/m -4,9 C 4,6 C 8,0 km/h (2 Bft) 98 %
01.03.2022 12:00 4,6 C 4,6 C 4,7 C 49 % 1029,2 hPa 0,0 l/m 3,2 km/h (1 Bft) O-NO 67 10 min 0,229 mm 571 W/m -5,2 C 4,6 C 9,7 km/h (2 Bft) 97 %
01.03.2022 12:10 4,8 C 4,6 C 4,9 C 44 % 1029,2 hPa 0,0 l/m 3,2 km/h (1 Bft) SO 135 10 min 0,000 mm 568 W/m -6,4 C 4,8 C 14,5 km/h (3 Bft) 98 %
01.03.2022 12:30 5,1 C 4,6 C 5,1 C 48 % 1029,0 hPa 0,0 l/m 4,4 km/h (1 Bft) S 186 20 min 0,000 mm 385 W/m -5,0 C 5,1 C 16,1 km/h (3 Bft) 100 %
01.03.2022 12:40 5,5 C 5,1 C 5,6 C 45 % 1029,1 hPa 0,0 l/m 1,3 km/h (1 Bft) S-SW 210 10 min 0,000 mm 330 W/m -5,5 C 5,5 C 9,7 km/h (2 Bft) 100 %
01.03.2022 12:50 5,8 C 5,5 C 5,8 C 48 % 1029,1 hPa 0,0 l/m 1,7 km/h (1 Bft) O-NO 68 10 min 0,000 mm 462 W/m -4,3 C 5,8 C 16,1 km/h (3 Bft) 100 %
01.03.2022 13:00 5,8 C 5,8 C 5,8 C 49 % 1029,1 hPa 0,0 l/m 1,7 km/h (1 Bft) N 355 10 min 0,179 mm 260 W/m -4,1 C 5,8 C 8,0 km/h (2 Bft) 100 %
01.03.2022 13:10 5,7 C 5,6 C 5,8 C 49 % 1029,0 hPa 0,0 l/m 0,5 km/h (0 Bft) N-NO 17 10 min 0,000 mm 550 W/m -4,2 C 5,7 C 6,4 km/h (2 Bft) 100 %
01.03.2022 13:20 5,7 C 5,7 C 5,8 C 47 % 1028,9 hPa 0,0 l/m 1,7 km/h (1 Bft) SO 126 10 min 0,000 mm 529 W/m -4,7 C 5,7 C 11,3 km/h (2 Bft) 100 %
01.03.2022 13:30 5,9 C 5,7 C 5,9 C 48 % 1028,7 hPa 0,0 l/m 1,4 km/h (1 Bft) O-SO 113 10 min 0,000 mm 517 W/m -4,3 C 5,9 C 6,4 km/h (2 Bft) 100 %
01.03.2022 13:40 6,2 C 5,9 C 6,2 C 45 % 1028,5 hPa 0,0 l/m 1,9 km/h (1 Bft) S 169 10 min 0,000 mm 454 W/m -4,8 C 6,2 C 11,3 km/h (2 Bft) 99 %
01.03.2022 13:50 6,1 C 6,1 C 6,3 C 45 % 1028,4 hPa 0,0 l/m 0,2 km/h (0 Bft) O-SO 121 10 min 0,000 mm 369 W/m -4,9 C 6,1 C 4,8 km/h (1 Bft) 100 %
01.03.2022 14:00 5,9 C 5,9 C 6,2 C 48 % 1028,3 hPa 0,0 l/m 2,3 km/h (1 Bft) O-SO 117 10 min 0,203 mm 534 W/m -4,3 C 5,9 C 14,5 km/h (3 Bft) 100 %
01.03.2022 14:10 6,3 C 5,9 C 6,4 C 46 % 1028,2 hPa 0,0 l/m 1,5 km/h (1 Bft) SO 127 10 min 0,000 mm 272 W/m -4,5 C 6,3 C 14,5 km/h (3 Bft) 100 %
01.03.2022 14:20 6,0 C 6,0 C 6,3 C 45 % 1028,0 hPa 0,0 l/m 2,0 km/h (1 Bft) O-NO 71 10 min 0,000 mm 200 W/m -5,0 C 6,0 C 11,3 km/h (2 Bft) 99 %
01.03.2022 14:30 6,1 C 6,0 C 6,1 C 47 % 1027,9 hPa 0,0 l/m 0,3 km/h (0 Bft) O-SO 103 10 min 0,000 mm 359 W/m -4,3 C 6,1 C 6,4 km/h (2 Bft) 100 %
01.03.2022 14:40 6,6 C 6,1 C 6,6 C 43 % 1027,8 hPa 0,0 l/m 0,7 km/h (0 Bft) O-SO 109 10 min 0,000 mm 515 W/m -5,1 C 6,6 C 8,0 km/h (2 Bft) 100 %
01.03.2022 14:50 7,1 C 6,6 C 7,1 C 45 % 1027,7 hPa 0,0 l/m 0,0 km/h (0 Bft) O-SO 104 10 min 0,000 mm 462 W/m -4,0 C 7,1 C 3,2 km/h (1 Bft) 100 %
01.03.2022 15:00 7,4 C 7,1 C 7,4 C 46 % 1027,6 hPa 0,0 l/m 0,3 km/h (0 Bft) O 86 10 min 0,153 mm 309 W/m -3,4 C 7,4 C 6,4 km/h (2 Bft) 99 %
01.03.2022 15:10 7,1 C 7,1 C 7,4 C 47 % 1027,4 hPa 0,0 l/m 0,4 km/h (0 Bft) O 82 10 min 0,000 mm 320 W/m -3,4 C 7,1 C 8,0 km/h (2 Bft) 100 %
01.03.2022 15:20 7,0 C 6,9 C 7,1 C 45 % 1027,4 hPa 0,0 l/m 0,0 km/h (0 Bft) O-SO 110 10 min 0,000 mm 269 W/m -4,1 C 7,0 C 1,6 km/h (1 Bft) 100 %
01.03.2022 15:30 7,3 C 7,0 C 7,3 C 44 % 1027,3 hPa 0,0 l/m 0,3 km/h (0 Bft) O-SO 117 10 min 0,000 mm 294 W/m -4,1 C 7,3 C 8,0 km/h (2 Bft) 100 %
01.03.2022 15:40 7,3 C 7,3 C 7,3 C 44 % 1027,1 hPa 0,0 l/m 0,4 km/h (0 Bft) O-SO 107 10 min 0,000 mm 308 W/m -4,1 C 7,3 C 6,4 km/h (2 Bft) 100 %
01.03.2022 15:50 7,4 C 7,3 C 7,4 C 44 % 1027,2 hPa 0,0 l/m 0,7 km/h (0 Bft) SO 124 10 min 0,000 mm 309 W/m -4,0 C 7,4 C 9,7 km/h (2 Bft) 91 %
01.03.2022 16:00 7,4 C 7,4 C 7,5 C 42 % 1027,3 hPa 0,0 l/m 0,3 km/h (0 Bft) SO 131 10 min 0,000 mm 272 W/m -4,7 C 7,4 C 9,7 km/h (2 Bft) 100 %
01.03.2022 16:10 7,5 C 7,4 C 7,6 C 40 % 1027,3 hPa 0,0 l/m 1,6 km/h (1 Bft) O 79 10 min 0,127 mm 199 W/m -5,2 C 7,5 C 14,5 km/h (3 Bft) 100 %
01.03.2022 16:20 7,2 C 7,2 C 7,5 C 40 % 1027,2 hPa 0,0 l/m 0,3 km/h (0 Bft) O-SO 119 0 min 0,000 mm 135 W/m -5,5 C 7,2 C 6,4 km/h (2 Bft) 100 %
01.03.2022 16:30 7,3 C 7,1 C 7,3 C 41 % 1027,3 hPa 0,0 l/m 0,0 km/h (0 Bft) O-SO 105 10 min 0,000 mm 260 W/m -5,1 C 7,3 C 1,6 km/h (1 Bft) 100 %
01.03.2022 16:40 7,7 C 7,3 C 7,7 C 39 % 1027,3 hPa 0,0 l/m 0,1 km/h (0 Bft) O 94 0 min 0,000 mm 113 W/m -5,4 C 7,7 C 4,8 km/h (1 Bft) 100 %
01.03.2022 16:50 7,3 C 7,3 C 7,7 C 41 % 1027,2 hPa 0,0 l/m 1,0 km/h (0 Bft) SO 128 0 min 0,000 mm 83 W/m -5,1 C 7,3 C 11,3 km/h (2 Bft) 100 %
01.03.2022 17:00 6,9 C 6,9 C 7,3 C 43 % 1027,2 hPa 0,0 l/m 0,0 km/h (0 Bft) SO 128 0 min 0,076 mm 54 W/m -4,8 C 6,9 C 1,6 km/h (1 Bft) 100 %
01.03.2022 17:10 6,6 C 6,6 C 6,9 C 44 % 1027,2 hPa 0,0 l/m 0,1 km/h (0 Bft) O 99 0 min 0,000 mm 47 W/m -4,8 C 6,6 C 4,8 km/h (1 Bft) 99 %
01.03.2022 17:20 6,2 C 6,2 C 6,6 C 43 % 1027,0 hPa 0,0 l/m 0,0 km/h (0 Bft) O 92 0 min 0,000 mm 40 W/m -5,4 C 6,2 C 1,6 km/h (1 Bft) 100 %
01.03.2022 17:30 5,9 C 5,9 C 6,2 C 45 % 1027,1 hPa 0,0 l/m 0,0 km/h (0 Bft) O 93 0 min 0,000 mm 30 W/m -5,1 C 5,9 C 0,0 km/h (0 Bft) 99 %
01.03.2022 17:40 5,8 C 5,8 C 5,9 C 47 % 1027,3 hPa 0,0 l/m 0,0 km/h (0 Bft) O 93 0 min 0,000 mm 19 W/m -4,6 C 5,8 C 0,0 km/h (0 Bft) 100 %
01.03.2022 17:50 5,5 C 5,5 C 5,8 C 48 % 1027,4 hPa 0,0 l/m 0,0 km/h (0 Bft) O 93 0 min 0,000 mm 7 W/m -4,6 C 5,5 C 0,0 km/h (0 Bft) 100 %
01.03.2022 18:00 5,1 C 5,1 C 5,5 C 48 % 1027,4 hPa 0,0 l/m 0,0 km/h (0 Bft) O 93 0 min 0,025 mm 0 W/m -5,0 C 5,1 C 0,0 km/h (0 Bft) 100 %
01.03.2022 18:10 4,9 C 4,9 C 5,1 C 50 % 1027,3 hPa 0,0 l/m 0,0 km/h (0 Bft) O 93 0 min 0,000 mm 0 W/m -4,6 C 4,9 C 0,0 km/h (0 Bft) 99 %
01.03.2022 18:20 4,6 C 4,6 C 4,9 C 49 % 1027,3 hPa 0,0 l/m 0,0 km/h (0 Bft) O 93 0 min 0,000 mm 0 W/m -5,2 C 4,6 C 0,0 km/h (0 Bft) 100 %
01.03.2022 18:30 4,5 C 4,5 C 4,6 C 49 % 1027,2 hPa 0,0 l/m 0,0 km/h (0 Bft) O 93 0 min 0,000 mm 0 W/m -5,3 C 4,5 C 0,0 km/h (0 Bft) 100 %
01.03.2022 18:40 4,4 C 4,4 C 4,5 C 49 % 1027,1 hPa 0,0 l/m 0,0 km/h (0 Bft) O 93 0 min 0,000 mm 0 W/m -5,4 C 4,4 C 0,0 km/h (0 Bft) 100 %
01.03.2022 18:50 4,4 C 4,4 C 4,4 C 50 % 1027,0 hPa 0,0 l/m 0,0 km/h (0 Bft) O 93 0 min 0,000 mm 0 W/m -5,1 C 4,4 C 0,0 km/h (0 Bft) 100 %
01.03.2022 19:00 4,2 C 4,1 C 4,4 C 50 % 1027,2 hPa 0,0 l/m 0,0 km/h (0 Bft) O 93 0 min 0,000 mm 0 W/m -5,3 C 4,2 C 0,0 km/h (0 Bft) 100 %
01.03.2022 19:10 3,8 C 3,8 C 4,2 C 52 % 1027,2 hPa 0,0 l/m 0,0 km/h (0 Bft) O 93 0 min 0,000 mm 0 W/m -5,1 C 3,8 C 0,0 km/h (0 Bft) 100 %
01.03.2022 19:20 3,6 C 3,6 C 3,8 C 51 % 1027,2 hPa 0,0 l/m 0,0 km/h (0 Bft) O 93 0 min 0,000 mm 0 W/m -5,6 C 3,6 C 0,0 km/h (0 Bft) 100 %
01.03.2022 19:30 3,4 C 3,4 C 3,6 C 53 % 1027,2 hPa 0,0 l/m 0,0 km/h (0 Bft) O 93 0 min 0,000 mm 0 W/m -5,3 C 3,4 C 0,0 km/h (0 Bft) 100 %
01.03.2022 19:40 3,2 C 3,2 C 3,4 C 54 % 1027,1 hPa 0,0 l/m 0,0 km/h (0 Bft) O 93 0 min 0,000 mm 0 W/m -5,2 C 3,2 C 0,0 km/h (0 Bft) 100 %
01.03.2022 19:50 3,1 C 3,1 C 3,2 C 53 % 1027,1 hPa 0,0 l/m 0,0 km/h (0 Bft) O 93 0 min 0,000 mm 0 W/m -5,5 C 3,1 C 0,0 km/h (0 Bft) 100 %
01.03.2022 20:00 3,2 C 3,1 C 3,2 C 53 % 1027,1 hPa 0,0 l/m 0,0 km/h (0 Bft) O 93 0 min 0,026 mm 0 W/m -5,4 C 3,2 C 0,0 km/h (0 Bft) 100 %
01.03.2022 20:10 2,9 C 2,9 C 3,2 C 60 % 1027,3 hPa 0,0 l/m 0,0 km/h (0 Bft) O-NO 77 0 min 0,000 mm 0 W/m -4,1 C 2,9 C 0,0 km/h (0 Bft) 91 %
01.03.2022 20:20 1,9 C 1,9 C 2,9 C 64 % 1027,3 hPa 0,0 l/m 0,0 km/h (0 Bft) O-NO 72 0 min 0,000 mm 0 W/m -4,2 C 1,9 C 0,0 km/h (0 Bft) 100 %
01.03.2022 20:30 1,3 C 1,3 C 1,9 C 67 % 1027,2 hPa 0,0 l/m 0,0 km/h (0 Bft) O-NO 72 0 min 0,000 mm 0 W/m -4,1 C 1,3 C 1,6 km/h (1 Bft) 100 %
01.03.2022 20:40 0,8 C 0,8 C 1,3 C 69 % 1027,2 hPa 0,0 l/m 0,0 km/h (0 Bft) O-NO 72 0 min 0,000 mm 0 W/m -4,2 C 0,8 C 0,0 km/h (0 Bft) 99 %
01.03.2022 20:50 0,5 C 0,5 C 0,8 C 70 % 1027,2 hPa 0,0 l/m 0,0 km/h (0 Bft) O-NO 72 0 min 0,000 mm 0 W/m -4,3 C 0,5 C 0,0 km/h (0 Bft) 91 %
01.03.2022 21:00 0,2 C 0,2 C 0,5 C 72 % 1027,3 hPa 0,0 l/m 0,0 km/h (0 Bft) O-NO 71 0 min 0,025 mm 0 W/m -4,2 C 0,2 C 0,0 km/h (0 Bft) 100 %
01.03.2022 21:10 -0,1 C -0,1 C 0,1 C 71 % 1027,2 hPa 0,0 l/m 0,0 km/h (0 Bft) N 0 0 min 0,000 mm 0 W/m -4,7 C -0,1 C 0,0 km/h (0 Bft) 90 %
01.03.2022 21:20 -0,2 C -0,2 C -0,1 C 73 % 1027,1 hPa 0,0 l/m 0,0 km/h (0 Bft) N 0 0 min 0,000 mm 0 W/m -4,4 C -0,2 C 0,0 km/h (0 Bft) 100 %
01.03.2022 21:30 -0,4 C -0,4 C -0,2 C 74 % 1027,1 hPa 0,0 l/m 0,0 km/h (0 Bft) N 0 0 min 0,000 mm 0 W/m -4,5 C -0,4 C 0,0 km/h (0 Bft) 100 %
01.03.2022 21:40 -0,7 C -0,7 C -0,4 C 75 % 1027,1 hPa 0,0 l/m 0,0 km/h (0 Bft) N 0 0 min 0,000 mm 0 W/m -4,6 C -0,7 C 0,0 km/h (0 Bft) 100 %
01.03.2022 21:50 -0,9 C -0,9 C -0,7 C 76 % 1027,1 hPa 0,0 l/m 0,0 km/h (0 Bft) N 0 0 min 0,000 mm 0 W/m -4,6 C -0,9 C 0,0 km/h (0 Bft) 100 %
01.03.2022 22:00 -1,2 C -1,2 C -1,0 C 77 % 1027,1 hPa 0,0 l/m 0,0 km/h (0 Bft) N 0 0 min 0,000 mm 0 W/m -4,7 C -1,2 C 0,0 km/h (0 Bft) 100 %
01.03.2022 22:10 -1,3 C -1,3 C -1,2 C 77 % 1026,9 hPa 0,0 l/m 0,0 km/h (0 Bft) N 0 0 min 0,000 mm 0 W/m -4,8 C -1,3 C 0,0 km/h (0 Bft) 100 %
01.03.2022 22:20 -1,3 C -1,3 C -1,3 C 78 % 1026,8 hPa 0,0 l/m 0,0 km/h (0 Bft) N 0 0 min 0,000 mm 0 W/m -4,6 C -1,3 C 0,0 km/h (0 Bft) 100 %
01.03.2022 22:30 -1,4 C -1,4 C -1,3 C 78 % 1026,8 hPa 0,0 l/m 0,0 km/h (0 Bft) N 0 0 min 0,000 mm 0 W/m -4,7 C -1,4 C 0,0 km/h (0 Bft) 100 %
01.03.2022 22:40 -1,5 C -1,5 C -1,4 C 79 % 1026,6 hPa 0,0 l/m 0,0 km/h (0 Bft) N 0 0 min 0,000 mm 0 W/m -4,7 C -1,5 C 0,0 km/h (0 Bft) 100 %
01.03.2022 22:50 -1,6 C -1,6 C -1,5 C 79 % 1026,5 hPa 0,0 l/m 0,0 km/h (0 Bft) NO 45 0 min 0,000 mm 0 W/m -4,8 C -1,6 C 6,4 km/h (2 Bft) 100 %
01.03.2022 23:00 -1,7 C -1,7 C -1,6 C 79 % 1026,4 hPa 0,0 l/m 0,0 km/h (0 Bft) N 0 0 min 0,000 mm 0 W/m -4,8 C -1,7 C 0,0 km/h (0 Bft) 100 %
01.03.2022 23:10 -1,6 C -1,7 C -1,6 C 79 % 1026,4 hPa 0,0 l/m 0,0 km/h (0 Bft) N 0 0 min 0,000 mm 0 W/m -4,8 C -1,6 C 0,0 km/h (0 Bft) 100 %
01.03.2022 23:20 -1,5 C -1,6 C -1,5 C 79 % 1026,3 hPa 0,0 l/m 0,0 km/h (0 Bft) N 0 0 min 0,000 mm 0 W/m -4,7 C -1,5 C 0,0 km/h (0 Bft) 100 %
01.03.2022 23:30 -1,3 C -1,5 C -1,3 C 78 % 1026,2 hPa 0,0 l/m 0,0 km/h (0 Bft) N 0 0 min 0,000 mm 0 W/m -4,6 C -1,3 C 0,0 km/h (0 Bft) 100 %
01.03.2022 23:40 -1,1 C -1,3 C -1,1 C 77 % 1026,2 hPa 0,0 l/m 0,0 km/h (0 Bft) N 0 0 min 0,000 mm 0 W/m -4,6 C -1,1 C 0,0 km/h (0 Bft) 88 %
01.03.2022 23:50 -1,1 C -1,1 C -1,1 C 76 % 1026,3 hPa 0,0 l/m 0,0 km/h (0 Bft) N 360 0 min 0,000 mm 0 W/m -4,8 C -1,1 C 6,4 km/h (2 Bft) 98 %
_ Min-Zeit 07:00 07:00 07:10 16:40 23:30 - 00:30 - - - - - 07:30 07:00 02:30 01:50
Minimum _ -2,9 C -2,9 C -2,9 C 39 % 1026,2 hPa - 0,0 km/h (0 Bft) - - - - - -6,7 C -2,9 C 0,0 km/h (0 Bft) 87 %
_ Max-Zeit 16:40 16:00 16:40 22:40 00:50 00:00 09:20 - - 12:30 12:00 12:00 15:10 16:40 09:10 07:10
Maximum _ 7,7 C 7,4 C 7,7 C 79 % 1030,5 hPa 0,0 l/m 4,8 km/h
O (1 Bft)
- - 20 min 0,229 mm 571 W/m -3,4 C 7,7 C 17,7 km/h
O (3 Bft)
100 %
Durchschnitt _ 1,8 C 1,7 C 1,9 C 61 % 1028,7 hPa #0,0 l/m 0,6 km/h (0 Bft) O-SO - #7:50 h #1,524 mm 295 W/m -5,1 C 1,8 C 5,1 km/h (1 Bft) 98 %
PRIVATE WETTERSTATION BILLIGHEIM-ALLFELD - www.neckar-odenwald-wetter.de - Holger Sonntag